createdAt,value
2022-12-29T00:00:09.043Z,7.84
2022-12-29T00:02:40.126Z,8.30
2022-12-29T00:05:08.122Z,8.52
2022-12-29T00:07:35.517Z,8.46
2022-12-29T00:10:02.839Z,8.63
2022-12-29T00:12:50.269Z,8.46
2022-12-29T00:15:36.139Z,8.61
2022-12-29T00:18:03.743Z,8.00
2022-12-29T00:20:59.904Z,8.45
2022-12-29T00:23:46.060Z,8.21
2022-12-29T00:26:34.799Z,7.65
2022-12-29T00:29:20.905Z,7.29
2022-12-29T00:32:07.777Z,8.15
2022-12-29T00:34:53.782Z,8.49
2022-12-29T00:37:41.062Z,8.31
2022-12-29T00:40:27.819Z,6.83
2022-12-29T00:43:13.791Z,8.02
2022-12-29T00:45:42.742Z,7.31
2022-12-29T00:48:10.013Z,6.84
2022-12-29T00:50:37.295Z,7.00
2022-12-29T00:53:04.773Z,6.27
2022-12-29T00:55:31.969Z,6.60
2022-12-29T00:57:59.426Z,6.57
2022-12-29T01:00:26.963Z,6.00
2022-12-29T01:02:54.969Z,5.55
2022-12-29T01:05:22.229Z,6.59
2022-12-29T01:07:49.922Z,6.23
2022-12-29T01:10:17.136Z,5.19
2022-12-29T01:12:46.275Z,5.38
2022-12-29T01:15:15.327Z,4.79
2022-12-29T01:17:42.806Z,5.08
2022-12-29T01:20:10.537Z,5.88
2022-12-29T01:22:38.114Z,6.27
2022-12-29T01:25:05.682Z,6.27
2022-12-29T01:27:32.922Z,6.89
2022-12-29T01:30:00.350Z,7.00
2022-12-29T01:32:27.527Z,6.94
2022-12-29T01:34:54.706Z,7.23
2022-12-29T01:37:22.222Z,7.72
2022-12-29T01:39:49.509Z,7.98
2022-12-29T01:42:17.614Z,7.89
2022-12-29T01:44:58.984Z,7.74
2022-12-29T01:47:58.897Z,7.22
2022-12-29T01:50:30.325Z,7.98
2022-12-29T01:52:58.725Z,8.01
2022-12-29T01:55:27.088Z,8.18
2022-12-29T01:57:54.335Z,8.33
2022-12-29T02:00:21.553Z,8.12
2022-12-29T02:02:50.428Z,8.37
2022-12-29T02:05:34.262Z,8.28
2022-12-29T02:08:01.911Z,8.29
2022-12-29T02:10:29.841Z,8.33
2022-12-29T02:12:57.431Z,8.29
2022-12-29T02:15:28.831Z,8.10
2022-12-29T02:18:09.716Z,8.10
2022-12-29T02:20:37.106Z,8.15
2022-12-29T02:23:04.346Z,8.09
2022-12-29T02:25:51.800Z,7.82
2022-12-29T02:28:52.066Z,7.63
2022-12-29T02:31:22.086Z,8.05
2022-12-29T02:33:50.038Z,7.55
2022-12-29T02:36:26.612Z,7.19
2022-12-29T02:39:03.103Z,7.58
2022-12-29T02:41:32.589Z,6.82
2022-12-29T02:44:00.046Z,5.88
2022-12-29T02:46:37.356Z,6.57
2022-12-29T02:49:04.832Z,6.66
2022-12-29T02:51:34.640Z,6.45
2022-12-29T02:54:20.629Z,7.08
2022-12-29T02:56:49.171Z,6.91
2022-12-29T02:59:17.805Z,6.78
2022-12-29T03:02:06.272Z,5.68
2022-12-29T03:05:01.727Z,5.94
2022-12-29T03:07:32.073Z,5.69
2022-12-29T03:09:59.522Z,6.69
2022-12-29T03:12:57.314Z,6.21
2022-12-29T03:15:54.357Z,6.39
2022-12-29T03:18:25.943Z,6.75
2022-12-29T03:20:54.492Z,6.73
2022-12-29T03:23:23.146Z,6.65
2022-12-29T03:25:52.214Z,6.67
2022-12-29T03:28:23.019Z,6.32
2022-12-29T03:30:50.514Z,6.04
2022-12-29T03:33:19.918Z,6.15
2022-12-29T03:35:48.458Z,6.30
2022-12-29T03:38:20.208Z,5.84
2022-12-29T03:40:49.501Z,6.24
2022-12-29T03:43:16.771Z,4.06
2022-12-29T03:45:45.784Z,4.08
2022-12-29T03:48:14.283Z,5.18
2022-12-29T03:50:41.711Z,5.36
2022-12-29T03:53:09.235Z,6.01
2022-12-29T03:55:36.808Z,6.29
2022-12-29T03:58:04.055Z,5.72
2022-12-29T04:00:31.685Z,5.37
2022-12-29T04:02:59.764Z,4.67
2022-12-29T04:05:27.846Z,5.18
2022-12-29T04:07:55.234Z,5.69
2022-12-29T04:10:24.111Z,4.63
2022-12-29T04:12:51.685Z,5.64
2022-12-29T04:15:18.968Z,5.63
2022-12-29T04:17:46.490Z,5.52
2022-12-29T04:20:39.631Z,5.51
2022-12-29T04:23:07.728Z,6.25
2022-12-29T04:25:35.432Z,5.37
2022-12-29T04:28:03.395Z,5.23
2022-12-29T04:30:31.173Z,4.08
2022-12-29T04:32:58.511Z,5.06
2022-12-29T04:35:25.870Z,4.98
2022-12-29T04:37:53.376Z,5.33
2022-12-29T04:40:21.043Z,4.46
2022-12-29T04:42:48.449Z,5.26
2022-12-29T04:45:16.025Z,4.03
2022-12-29T04:47:43.420Z,4.11
2022-12-29T04:50:11.379Z,5.61
2022-12-29T04:52:38.870Z,5.72
2022-12-29T04:55:06.546Z,4.64
2022-12-29T04:57:34.865Z,4.93
2022-12-29T05:00:02.821Z,4.69
2022-12-29T05:02:30.222Z,5.69
2022-12-29T05:04:57.777Z,4.96
2022-12-29T05:07:26.083Z,5.67
2022-12-29T05:09:54.130Z,6.07
2022-12-29T05:12:21.416Z,6.40
2022-12-29T05:14:49.341Z,6.18
2022-12-29T05:17:54.344Z,5.65
2022-12-29T05:20:40.023Z,5.21
2022-12-29T05:23:08.560Z,5.40
2022-12-29T05:25:35.844Z,5.72
2022-12-29T05:28:03.897Z,5.87
2022-12-29T05:30:31.766Z,5.88
2022-12-29T05:32:58.983Z,5.67
2022-12-29T05:35:26.285Z,5.57
2022-12-29T05:37:54.056Z,6.12
2022-12-29T05:40:21.358Z,5.75
2022-12-29T05:42:48.576Z,6.05
2022-12-29T05:45:16.444Z,5.95
2022-12-29T05:47:45.366Z,5.78
2022-12-29T05:50:12.918Z,5.43
2022-12-29T05:52:43.273Z,5.64
2022-12-29T05:55:10.699Z,5.33
2022-12-29T05:57:38.998Z,5.35
2022-12-29T06:00:07.350Z,4.46
2022-12-29T06:02:42.768Z,4.48
2022-12-29T06:05:10.534Z,4.87
2022-12-29T06:07:37.930Z,4.34
2022-12-29T06:10:06.025Z,4.11
2022-12-29T06:12:33.943Z,3.91
2022-12-29T06:15:01.225Z,4.51
2022-12-29T06:17:28.641Z,5.06
2022-12-29T06:19:56.159Z,5.26
2022-12-29T06:22:23.539Z,5.60
2022-12-29T06:24:50.915Z,5.93
2022-12-29T06:27:18.495Z,5.19
2022-12-29T06:29:45.735Z,4.89
2022-12-29T06:32:13.584Z,4.96
2022-12-29T06:34:42.475Z,4.53
2022-12-29T06:37:09.688Z,4.63
2022-12-29T06:39:36.952Z,4.58
2022-12-29T06:42:04.804Z,5.21
2022-12-29T06:44:32.263Z,4.48
2022-12-29T06:47:01.027Z,4.71
2022-12-29T06:49:28.645Z,4.24
2022-12-29T06:51:56.036Z,5.20
2022-12-29T06:54:23.235Z,5.91
2022-12-29T06:56:50.709Z,6.30
2022-12-29T06:59:17.927Z,6.28
2022-12-29T07:01:45.252Z,6.26
2022-12-29T07:04:12.904Z,5.63
2022-12-29T07:06:41.676Z,6.93
2022-12-29T07:09:09.305Z,8.11
2022-12-29T07:11:36.834Z,8.26
2022-12-29T07:14:04.345Z,8.22
2022-12-29T07:16:32.612Z,7.99
2022-12-29T07:19:00.608Z,8.15
2022-12-29T07:21:27.990Z,7.46
2022-12-29T07:23:55.421Z,7.94
2022-12-29T07:26:22.923Z,7.26
2022-12-29T07:28:50.120Z,8.56
2022-12-29T07:31:21.325Z,7.69
2022-12-29T07:33:48.831Z,8.78
2022-12-29T07:36:16.401Z,9.73
2022-12-29T07:38:43.711Z,9.32
2022-12-29T07:41:11.224Z,10.72
2022-12-29T07:43:38.659Z,10.88
2022-12-29T07:46:06.686Z,10.64
2022-12-29T07:48:37.031Z,11.26
2022-12-29T07:51:04.314Z,10.44
2022-12-29T07:53:31.490Z,10.89
2022-12-29T07:55:58.977Z,11.21
2022-12-29T07:58:26.155Z,10.29
2022-12-29T08:00:54.602Z,9.99
2022-12-29T08:03:22.481Z,7.64
2022-12-29T08:05:49.997Z,9.51
2022-12-29T08:08:17.211Z,9.99
2022-12-29T08:10:44.725Z,9.61
2022-12-29T08:13:13.414Z,8.90
2022-12-29T08:15:40.777Z,8.78
2022-12-29T08:18:08.324Z,8.81
2022-12-29T08:20:35.657Z,9.36
2022-12-29T08:23:02.887Z,9.29
2022-12-29T08:25:30.391Z,9.13
2022-12-29T08:27:57.744Z,9.01
2022-12-29T08:30:25.124Z,6.96
2022-12-29T08:32:52.634Z,8.13
2022-12-29T08:35:19.825Z,7.20
2022-12-29T08:37:47.006Z,6.39
2022-12-29T08:40:14.967Z,6.10
2022-12-29T08:42:42.199Z,7.06
2022-12-29T08:45:09.833Z,7.23
2022-12-29T08:47:37.419Z,5.49
2022-12-29T08:50:04.793Z,6.78
2022-12-29T08:52:32.040Z,6.56
2022-12-29T08:54:59.543Z,6.61
2022-12-29T08:57:26.763Z,6.76
2022-12-29T08:59:54.554Z,6.54
2022-12-29T09:02:24.756Z,7.04
2022-12-29T09:04:52.381Z,7.82
2022-12-29T09:07:19.694Z,7.52
2022-12-29T09:09:47.151Z,8.22
2022-12-29T09:12:14.378Z,9.14
2022-12-29T09:14:43.726Z,9.36
2022-12-29T09:17:29.884Z,9.31
2022-12-29T09:19:57.142Z,8.36
2022-12-29T09:22:24.578Z,8.48
2022-12-29T09:24:51.778Z,8.62
2022-12-29T09:27:18.953Z,8.44
2022-12-29T09:29:46.468Z,8.36
2022-12-29T09:32:18.347Z,6.95
2022-12-29T09:34:46.433Z,5.06
2022-12-29T09:37:13.636Z,5.10
2022-12-29T09:39:41.572Z,6.06
2022-12-29T09:42:14.771Z,5.89
2022-12-29T09:44:42.045Z,6.66
2022-12-29T09:47:10.312Z,7.71
2022-12-29T09:49:43.418Z,9.12
2022-12-29T09:52:14.840Z,9.02
2022-12-29T09:54:49.177Z,7.84
2022-12-29T09:57:21.670Z,8.69
2022-12-29T09:59:49.604Z,8.16
2022-12-29T10:02:31.434Z,9.18
2022-12-29T10:04:58.962Z,9.07
2022-12-29T10:07:32.040Z,9.80
2022-12-29T10:10:02.003Z,10.77
2022-12-29T10:12:38.291Z,9.99
2022-12-29T10:15:12.081Z,10.92
2022-12-29T10:18:00.885Z,11.17
2022-12-29T10:20:36.667Z,11.67
2022-12-29T10:23:22.761Z,12.32
2022-12-29T10:25:50.242Z,13.06
2022-12-29T10:28:21.964Z,13.94
2022-12-29T10:30:49.957Z,14.19
2022-12-29T10:33:19.356Z,13.57
2022-12-29T10:35:46.979Z,14.68
2022-12-29T10:38:24.143Z,15.41
2022-12-29T10:40:57.561Z,16.56
2022-12-29T10:43:26.298Z,15.58
2022-12-29T10:45:59.061Z,14.58
2022-12-29T10:48:31.816Z,11.51
2022-12-29T10:51:01.945Z,11.16
2022-12-29T10:53:45.678Z,10.79
2022-12-29T10:56:17.888Z,11.87
2022-12-29T10:58:49.558Z,12.93
2022-12-29T11:01:17.174Z,12.35
2022-12-29T11:03:49.805Z,12.58
2022-12-29T11:06:25.442Z,13.48
2022-12-29T11:09:12.908Z,13.45
2022-12-29T11:11:40.430Z,13.50
2022-12-29T11:14:14.739Z,13.36
2022-12-29T11:16:42.887Z,13.34
2022-12-29T11:19:23.942Z,14.26
2022-12-29T11:21:51.418Z,13.20
2022-12-29T11:24:26.176Z,13.67
2022-12-29T11:26:58.294Z,12.32
2022-12-29T11:29:26.683Z,12.18
2022-12-29T11:31:56.128Z,12.00
2022-12-29T11:34:27.817Z,11.93
2022-12-29T11:36:58.973Z,11.31
2022-12-29T11:39:26.094Z,11.71
2022-12-29T11:41:53.862Z,11.68
2022-12-29T11:44:21.314Z,11.48
2022-12-29T11:46:49.619Z,10.29
2022-12-29T11:49:26.698Z,9.63
2022-12-29T11:51:56.233Z,9.37
2022-12-29T11:54:33.733Z,8.72
2022-12-29T11:57:09.632Z,8.74
2022-12-29T11:59:38.907Z,9.14
2022-12-29T12:02:25.643Z,8.55
2022-12-29T12:04:55.382Z,7.31
2022-12-29T12:07:24.247Z,7.91
2022-12-29T12:09:52.379Z,7.74
2022-12-29T12:12:28.653Z,8.23
2022-12-29T12:15:00.343Z,8.15
2022-12-29T12:17:36.913Z,8.02
2022-12-29T12:20:43.703Z,8.17
2022-12-29T12:23:26.241Z,7.91
2022-12-29T12:26:10.740Z,7.37
2022-12-29T12:28:41.277Z,7.41
2022-12-29T12:31:34.939Z,7.06
2022-12-29T12:34:04.219Z,6.99
2022-12-29T12:36:34.961Z,6.48
2022-12-29T12:39:05.028Z,6.29
2022-12-29T12:41:32.178Z,7.37
2022-12-29T12:44:12.532Z,6.72
2022-12-29T12:46:40.497Z,7.49
2022-12-29T12:49:13.714Z,6.49
2022-12-29T12:52:05.504Z,6.82
2022-12-29T12:54:45.193Z,7.90
2022-12-29T12:57:12.790Z,7.11
2022-12-29T12:59:59.381Z,8.07
2022-12-29T13:02:50.454Z,7.51
2022-12-29T13:05:26.237Z,7.59
2022-12-29T13:08:12.758Z,7.87
2022-12-29T13:10:48.358Z,7.93
2022-12-29T13:13:37.758Z,8.00
2022-12-29T13:16:14.723Z,8.62
2022-12-29T13:19:02.745Z,8.97
2022-12-29T13:21:35.718Z,7.66
2022-12-29T13:24:08.917Z,7.69
2022-12-29T13:26:43.403Z,8.24
2022-12-29T13:29:17.427Z,8.36
2022-12-29T13:31:51.127Z,8.21
2022-12-29T13:34:37.705Z,8.22
2022-12-29T13:37:05.420Z,7.99
2022-12-29T13:39:34.168Z,8.36
2022-12-29T13:42:01.639Z,8.51
2022-12-29T13:44:39.980Z,8.37
2022-12-29T13:47:20.335Z,8.58
2022-12-29T13:49:47.546Z,8.34
2022-12-29T13:52:35.358Z,7.87
2022-12-29T13:55:21.318Z,8.47
2022-12-29T13:57:57.064Z,8.67
2022-12-29T14:00:24.652Z,9.02
2022-12-29T14:03:02.888Z,8.20
2022-12-29T14:05:31.188Z,8.63
2022-12-29T14:08:02.636Z,8.25
2022-12-29T14:10:36.981Z,8.84
2022-12-29T14:13:10.880Z,8.35
2022-12-29T14:15:43.905Z,7.98
2022-12-29T14:18:18.809Z,8.48
2022-12-29T14:20:58.211Z,8.97
2022-12-29T14:23:30.807Z,8.36
2022-12-29T14:25:59.479Z,8.70
2022-12-29T14:28:30.705Z,8.52
2022-12-29T14:31:17.969Z,7.62
2022-12-29T14:34:04.423Z,8.34
2022-12-29T14:36:35.630Z,8.11
2022-12-29T14:39:04.068Z,8.28
2022-12-29T14:41:36.331Z,8.55
2022-12-29T14:44:11.555Z,8.48
2022-12-29T14:46:45.545Z,7.99
2022-12-29T14:49:24.120Z,8.78
2022-12-29T14:51:52.158Z,8.98
2022-12-29T14:54:36.272Z,9.09
2022-12-29T14:57:03.996Z,9.18
2022-12-29T14:59:31.642Z,8.52
2022-12-29T15:01:59.008Z,8.67
2022-12-29T15:04:27.866Z,6.98
2022-12-29T15:06:55.376Z,7.29
2022-12-29T15:09:30.096Z,8.28
2022-12-29T15:11:59.221Z,8.34
2022-12-29T15:14:29.513Z,7.41
2022-12-29T15:16:56.713Z,8.21
2022-12-29T15:19:25.116Z,8.58
2022-12-29T15:21:53.043Z,7.92
2022-12-29T15:24:20.540Z,7.19
2022-12-29T15:26:49.184Z,8.11
2022-12-29T15:29:38.101Z,7.41
2022-12-29T15:32:31.748Z,8.52
2022-12-29T15:35:01.274Z,8.66
2022-12-29T15:37:29.923Z,8.21
2022-12-29T15:39:57.359Z,7.77
2022-12-29T15:42:33.960Z,7.36
2022-12-29T15:45:10.727Z,6.53
2022-12-29T15:47:38.556Z,6.89
2022-12-29T15:50:09.384Z,8.45
2022-12-29T15:52:36.556Z,7.89
2022-12-29T15:55:03.891Z,7.60
2022-12-29T15:57:33.667Z,7.06
2022-12-29T16:00:01.478Z,7.08
2022-12-29T16:02:28.997Z,6.75
2022-12-29T16:07:54.380Z,6.89
2022-12-29T16:10:31.456Z,6.09
2022-12-29T16:13:02.985Z,6.39
2022-12-29T16:15:30.495Z,6.93
2022-12-29T16:17:57.693Z,6.05
2022-12-29T16:20:26.075Z,6.14
2022-12-29T16:22:54.806Z,6.31
2022-12-29T16:25:26.410Z,6.60
2022-12-29T16:27:54.178Z,7.26
2022-12-29T16:30:24.243Z,8.15
2022-12-29T16:32:56.267Z,8.38
2022-12-29T16:35:24.652Z,8.38
2022-12-29T16:38:27.320Z,7.53
2022-12-29T16:40:54.765Z,8.12
2022-12-29T16:43:22.022Z,6.06
2022-12-29T16:45:49.384Z,7.26
2022-12-29T16:48:16.885Z,7.71
2022-12-29T16:50:44.463Z,7.85
2022-12-29T16:53:37.793Z,7.89
2022-12-29T16:56:15.632Z,8.34
2022-12-29T16:58:47.598Z,7.22
2022-12-29T17:01:20.147Z,7.89
2022-12-29T17:03:58.377Z,7.86
2022-12-29T17:06:26.050Z,7.94
2022-12-29T17:08:53.276Z,8.61
2022-12-29T17:11:40.660Z,8.19
2022-12-29T17:14:27.144Z,8.27
2022-12-29T17:16:54.408Z,8.05
2022-12-29T17:19:24.117Z,8.52
2022-12-29T17:21:51.546Z,8.67
2022-12-29T17:24:19.772Z,8.54
2022-12-29T17:26:48.789Z,8.34
2022-12-29T17:29:35.091Z,8.79
2022-12-29T17:32:03.165Z,8.83
2022-12-29T17:34:30.330Z,9.03
2022-12-29T17:36:57.585Z,9.32
2022-12-29T17:39:25.184Z,9.13
2022-12-29T17:41:52.376Z,9.33
2022-12-29T17:44:20.143Z,9.31
2022-12-29T17:46:48.195Z,9.38
2022-12-29T17:49:16.419Z,9.23
2022-12-29T17:51:44.062Z,9.37
2022-12-29T17:54:17.911Z,9.29
2022-12-29T17:56:45.203Z,9.06
2022-12-29T17:59:14.081Z,9.22
2022-12-29T18:01:45.431Z,9.21
2022-12-29T18:04:14.396Z,9.11
2022-12-29T18:06:41.865Z,9.09
2022-12-29T18:09:10.751Z,8.60
2022-12-29T18:11:40.148Z,8.68
2022-12-29T18:14:17.235Z,8.87
2022-12-29T18:16:44.821Z,8.96
2022-12-29T18:19:12.049Z,8.81
2022-12-29T18:21:39.282Z,8.92
2022-12-29T18:24:09.609Z,8.70
2022-12-29T18:26:37.771Z,7.52
2022-12-29T18:29:05.038Z,8.27
2022-12-29T18:31:33.216Z,8.70
2022-12-29T18:34:01.441Z,8.68
2022-12-29T18:36:29.090Z,8.86
2022-12-29T18:38:56.682Z,8.55
2022-12-29T18:41:24.791Z,8.00
2022-12-29T18:43:51.978Z,8.55
2022-12-29T18:46:23.120Z,8.36
2022-12-29T18:48:51.361Z,8.70
2022-12-29T18:51:19.697Z,7.87
2022-12-29T18:53:47.284Z,8.56
2022-12-29T18:56:14.517Z,8.68
2022-12-29T18:58:42.222Z,8.90
2022-12-29T19:01:16.352Z,8.69
2022-12-29T19:03:43.733Z,8.58
2022-12-29T19:06:11.309Z,8.81
2022-12-29T19:08:39.165Z,8.70
2022-12-29T19:11:06.650Z,8.54
2022-12-29T19:13:34.121Z,8.68
2022-12-29T19:16:01.412Z,8.57
2022-12-29T19:18:47.518Z,8.83
2022-12-29T19:21:16.911Z,9.02
2022-12-29T19:23:44.547Z,8.95
2022-12-29T19:26:29.425Z,8.94
2022-12-29T19:28:57.215Z,8.82
2022-12-29T19:31:24.753Z,8.86
2022-12-29T19:33:52.040Z,8.94
2022-12-29T19:36:19.691Z,8.93
2022-12-29T19:38:47.164Z,8.57
2022-12-29T19:41:14.850Z,8.60
2022-12-29T19:43:42.465Z,8.73
2022-12-29T19:46:10.933Z,8.46
2022-12-29T19:48:38.404Z,8.54
2022-12-29T19:51:07.598Z,8.50
2022-12-29T19:53:35.265Z,8.49
2022-12-29T19:56:03.636Z,8.59
2022-12-29T19:58:32.026Z,8.58
2022-12-29T20:01:06.483Z,8.29
2022-12-29T20:03:34.344Z,8.15
2022-12-29T20:06:01.848Z,8.29
2022-12-29T20:08:29.076Z,8.32
2022-12-29T20:10:57.511Z,8.38
2022-12-29T20:13:24.813Z,8.36
2022-12-29T20:15:51.986Z,8.16
2022-12-29T20:18:23.766Z,8.34
2022-12-29T20:21:06.028Z,8.42
2022-12-29T20:23:33.917Z,8.34
2022-12-29T20:26:01.567Z,8.37
2022-12-29T20:28:28.937Z,8.30
2022-12-29T20:30:57.610Z,8.24
2022-12-29T20:33:24.878Z,8.23
2022-12-29T20:35:52.239Z,8.41
2022-12-29T20:38:20.028Z,8.37
2022-12-29T20:40:47.689Z,8.28
2022-12-29T20:43:15.297Z,8.27
2022-12-29T20:45:42.878Z,8.27
2022-12-29T20:48:10.240Z,8.30
2022-12-29T20:50:37.577Z,8.17
2022-12-29T20:53:05.231Z,8.25
2022-12-29T20:55:32.659Z,8.38
2022-12-29T21:00:47.583Z,8.29
2022-12-29T21:03:14.940Z,8.25
2022-12-29T21:05:42.159Z,8.12
2022-12-29T21:08:11.587Z,8.13
2022-12-29T21:10:39.123Z,7.94
2022-12-29T21:13:06.359Z,7.94
2022-12-29T21:15:34.282Z,7.95
2022-12-29T21:18:01.505Z,8.01
2022-12-29T21:20:32.247Z,7.77
2022-12-29T21:23:00.917Z,7.83
2022-12-29T21:25:36.837Z,7.98
2022-12-29T21:28:08.366Z,8.02
2022-12-29T21:30:35.862Z,7.90
2022-12-29T21:33:03.796Z,7.94
2022-12-29T21:35:31.061Z,8.04
2022-12-29T21:37:58.257Z,8.09
2022-12-29T21:40:25.809Z,8.04
2022-12-29T21:42:53.016Z,8.13
2022-12-29T21:45:26.134Z,8.32
2022-12-29T21:48:12.992Z,8.23
2022-12-29T21:50:59.633Z,8.19
2022-12-29T21:53:37.963Z,8.45
2022-12-29T21:56:05.330Z,8.28
2022-12-29T21:58:51.414Z,8.27
2022-12-29T22:01:37.587Z,8.22
2022-12-29T22:04:23.770Z,7.94
2022-12-29T22:07:09.577Z,8.22
2022-12-29T22:09:55.652Z,8.13
2022-12-29T22:12:41.376Z,8.11
2022-12-29T22:15:08.956Z,8.14
2022-12-29T22:17:37.768Z,7.90
2022-12-29T22:20:05.911Z,7.78
2022-12-29T22:22:33.411Z,8.01
2022-12-29T22:25:00.607Z,7.86
2022-12-29T22:27:27.947Z,7.95
2022-12-29T22:29:55.445Z,7.94
2022-12-29T22:32:22.663Z,8.13
2022-12-29T22:34:50.025Z,7.80
2022-12-29T22:37:17.482Z,7.78
2022-12-29T22:39:44.693Z,7.89
2022-12-29T22:42:11.864Z,7.91
2022-12-29T22:44:39.556Z,8.07
2022-12-29T22:47:06.874Z,8.18
2022-12-29T22:49:34.207Z,8.16
2022-12-29T22:52:01.733Z,8.27
2022-12-29T22:54:28.938Z,8.04
2022-12-29T22:56:56.090Z,8.00
2022-12-29T22:59:23.740Z,7.67
2022-12-29T23:01:51.192Z,8.22
2022-12-29T23:07:06.010Z,8.53
2022-12-29T23:09:34.600Z,8.35
2022-12-29T23:12:01.800Z,8.65
2022-12-29T23:14:29.342Z,8.56
2022-12-29T23:16:56.689Z,8.78
2022-12-29T23:19:23.937Z,8.73
2022-12-29T23:21:51.476Z,8.85
2022-12-29T23:24:18.629Z,8.81
2022-12-29T23:26:46.458Z,8.82
2022-12-29T23:29:18.032Z,8.81
2022-12-29T23:31:45.753Z,8.82
2022-12-29T23:34:13.424Z,8.92
2022-12-29T23:36:41.075Z,8.82
2022-12-29T23:39:11.210Z,8.66
2022-12-29T23:41:38.710Z,8.75
2022-12-29T23:44:06.253Z,8.60
2022-12-29T23:46:33.527Z,8.87
2022-12-29T23:49:00.697Z,8.45
2022-12-29T23:51:28.216Z,8.72
2022-12-29T23:53:55.414Z,8.99
2022-12-29T23:56:23.075Z,9.15
2022-12-29T23:58:51.029Z,9.16
